COL2 weather

Orangeville / Laurel Airstrip
Orangeville, Ontario, Canada

Public forecast

Using degrees Celsius for public forecast. Weather courtesy of forecast.io.

Closest aviation weather report (METAR) to Orangeville / Laurel Airstrip

Closest report is CFB Borden, 24.8 nm (45.9 km) NNE. Retrieved 2019/10/17 00:35 UTC (0 seconds ago):

CYBN 170035Z AUTO 19002KT 9SM BKN024 OVC071 07/06 A2946

Closest aviation forecast (TAF) to Orangeville / Laurel Airstrip

Closest forecast is CFB Borden, 24.8 nm (45.9 km) NNE. Retrieved 2019-10-17 00:33 UTC (0 seconds ago):

TAF TAF CYBN 162330Z 1700/1712 22005KT P6SM FEW015 BKN030 TEMPO 1700/1703 4SM -RA BR FEW008 BKN015 OVC030 FM170300 VRB03KT 5SM BR FEW006 BKN015 TEMPO 1703/1707 2SM -SHRA BR BKN006 OVC015 BECMG 1705/1707 32010KT FM170700 32010KT 4SM -SHRA BR BKN008 OVC015 RMK FCST BASED ON AUTO OBS NXT FCST BY 170600Z